Terminal Aerodrome Forecast
Issued by NWS

Home | Current Version | Previous Version | Text Only | Print | Product List | Glossary On
Versions: 1 2 3 4 5 6 7 8 9 10 11 12 13 14 15 16 17 18 19 20 21 22 23 24 25 26 27 28 29 30 31 32 33 34 35 36 37 38 39 40
000
FTUS43 KDDC 180527
TAFHYS
TAF
KHYS 180527Z 1806/1906 09008KT P6SM SCT200
     FM180900 11008KT 2SM BR SCT007
     FM181100 11007KT 1/2SM FG VV002
     FM181400 12010KT 3SM BR BKN007
     FM181600 13010KT P6SM SCT030=

USA.gov is the U.S. government's official web portal to all federal, state and local government web resources and services.